sensor_id;sensor_type;location;lat;lon;timestamp;P1;durP1;ratioP1;P2;durP2;ratioP2
75887;SDS011;64562;55.662;37.300;2022-12-18T00:00:08;88.93;;;51.47;;
75887;SDS011;64562;55.662;37.300;2022-12-18T00:02:35;85.28;;;51.08;;
75887;SDS011;64562;55.662;37.300;2022-12-18T00:05:01;87.70;;;50.13;;
75887;SDS011;64562;55.662;37.300;2022-12-18T00:07:28;87.38;;;50.38;;
75887;SDS011;64562;55.662;37.300;2022-12-18T00:09:56;96.22;;;54.42;;
75887;SDS011;64562;55.662;37.300;2022-12-18T00:12:23;92.30;;;52.42;;
75887;SDS011;64562;55.662;37.300;2022-12-18T00:14:50;102.53;;;57.08;;
75887;SDS011;64562;55.662;37.300;2022-12-18T00:17:16;95.00;;;53.15;;
75887;SDS011;64562;55.662;37.300;2022-12-18T00:19:43;89.20;;;50.45;;
75887;SDS011;64562;55.662;37.300;2022-12-18T00:22:10;91.97;;;51.17;;
75887;SDS011;64562;55.662;37.300;2022-12-18T00:24:37;93.70;;;53.33;;
75887;SDS011;64562;55.662;37.300;2022-12-18T00:27:05;90.40;;;52.20;;
75887;SDS011;64562;55.662;37.300;2022-12-18T00:29:32;96.85;;;54.35;;
75887;SDS011;64562;55.662;37.300;2022-12-18T00:31:59;97.63;;;55.33;;
75887;SDS011;64562;55.662;37.300;2022-12-18T00:34:26;91.90;;;53.05;;
75887;SDS011;64562;55.662;37.300;2022-12-18T00:36:52;95.03;;;52.45;;
75887;SDS011;64562;55.662;37.300;2022-12-18T00:39:19;88.97;;;51.15;;
75887;SDS011;64562;55.662;37.300;2022-12-18T00:41:46;99.30;;;55.72;;
75887;SDS011;64562;55.662;37.300;2022-12-18T00:44:31;90.70;;;53.40;;
75887;SDS011;64562;55.662;37.300;2022-12-18T00:46:58;95.28;;;54.00;;
75887;SDS011;64562;55.662;37.300;2022-12-18T00:49:25;96.20;;;53.05;;
75887;SDS011;64562;55.662;37.300;2022-12-18T00:51:51;97.05;;;52.78;;
75887;SDS011;64562;55.662;37.300;2022-12-18T00:54:18;89.80;;;50.28;;
75887;SDS011;64562;55.662;37.300;2022-12-18T00:56:45;93.63;;;54.97;;
75887;SDS011;64562;55.662;37.300;2022-12-18T00:59:12;102.32;;;56.00;;
75887;SDS011;64562;55.662;37.300;2022-12-18T01:01:40;99.55;;;56.60;;
75887;SDS011;64562;55.662;37.300;2022-12-18T01:04:07;98.13;;;55.15;;
75887;SDS011;64562;55.662;37.300;2022-12-18T01:06:34;97.82;;;54.60;;
75887;SDS011;64562;55.662;37.300;2022-12-18T01:09:01;98.78;;;55.15;;
75887;SDS011;64562;55.662;37.300;2022-12-18T01:11:28;103.20;;;57.78;;
75887;SDS011;64562;55.662;37.300;2022-12-18T01:13:55;99.18;;;54.60;;
75887;SDS011;64562;55.662;37.300;2022-12-18T01:16:29;103.07;;;56.20;;
75887;SDS011;64562;55.662;37.300;2022-12-18T01:18:57;108.40;;;61.42;;
75887;SDS011;64562;55.662;37.300;2022-12-18T01:21:24;101.43;;;54.47;;
75887;SDS011;64562;55.662;37.300;2022-12-18T01:23:51;98.75;;;56.53;;
75887;SDS011;64562;55.662;37.300;2022-12-18T01:26:18;99.45;;;55.97;;
75887;SDS011;64562;55.662;37.300;2022-12-18T01:28:45;106.97;;;59.58;;
75887;SDS011;64562;55.662;37.300;2022-12-18T01:31:12;100.10;;;56.03;;
75887;SDS011;64562;55.662;37.300;2022-12-18T01:33:39;95.47;;;53.30;;
75887;SDS011;64562;55.662;37.300;2022-12-18T01:36:08;99.82;;;54.28;;
75887;SDS011;64562;55.662;37.300;2022-12-18T01:38:35;98.40;;;55.22;;
75887;SDS011;64562;55.662;37.300;2022-12-18T01:41:02;98.75;;;55.15;;
75887;SDS011;64562;55.662;37.300;2022-12-18T01:46:20;99.65;;;53.90;;
75887;SDS011;64562;55.662;37.300;2022-12-18T01:48:48;95.88;;;55.42;;
75887;SDS011;64562;55.662;37.300;2022-12-18T01:51:17;99.88;;;58.35;;
75887;SDS011;64562;55.662;37.300;2022-12-18T01:53:43;98.32;;;53.15;;
75887;SDS011;64562;55.662;37.300;2022-12-18T01:56:14;104.95;;;57.78;;
75887;SDS011;64562;55.662;37.300;2022-12-18T01:58:43;102.30;;;57.28;;
75887;SDS011;64562;55.662;37.300;2022-12-18T02:01:12;100.32;;;56.33;;
75887;SDS011;64562;55.662;37.300;2022-12-18T02:03:40;102.68;;;56.40;;
75887;SDS011;64562;55.662;37.300;2022-12-18T02:06:09;95.60;;;55.75;;
75887;SDS011;64562;55.662;37.300;2022-12-18T02:08:42;99.93;;;58.15;;
75887;SDS011;64562;55.662;37.300;2022-12-18T02:11:11;100.97;;;55.85;;
75887;SDS011;64562;55.662;37.300;2022-12-18T02:13:41;95.22;;;56.10;;
75887;SDS011;64562;55.662;37.300;2022-12-18T02:16:13;102.30;;;57.40;;
75887;SDS011;64562;55.662;37.300;2022-12-18T02:18:45;98.65;;;60.83;;
75887;SDS011;64562;55.662;37.300;2022-12-18T02:21:16;98.80;;;55.88;;
75887;SDS011;64562;55.662;37.300;2022-12-18T02:23:50;99.78;;;54.92;;
75887;SDS011;64562;55.662;37.300;2022-12-18T02:26:25;103.05;;;57.88;;
75887;SDS011;64562;55.662;37.300;2022-12-18T02:28:53;98.53;;;56.22;;
75887;SDS011;64562;55.662;37.300;2022-12-18T02:31:22;93.82;;;54.15;;
75887;SDS011;64562;55.662;37.300;2022-12-18T02:33:50;97.32;;;55.58;;
75887;SDS011;64562;55.662;37.300;2022-12-18T02:36:17;100.55;;;56.65;;
75887;SDS011;64562;55.662;37.300;2022-12-18T02:38:45;100.22;;;57.95;;
75887;SDS011;64562;55.662;37.300;2022-12-18T02:41:12;99.47;;;56.67;;
75887;SDS011;64562;55.662;37.300;2022-12-18T02:43:42;103.28;;;57.40;;
75887;SDS011;64562;55.662;37.300;2022-12-18T02:46:21;98.65;;;56.22;;
75887;SDS011;64562;55.662;37.300;2022-12-18T02:48:50;109.25;;;62.28;;
75887;SDS011;64562;55.662;37.300;2022-12-18T02:51:18;98.95;;;55.40;;
75887;SDS011;64562;55.662;37.300;2022-12-18T02:53:49;105.45;;;59.20;;
75887;SDS011;64562;55.662;37.300;2022-12-18T02:56:19;108.40;;;61.05;;
75887;SDS011;64562;55.662;37.300;2022-12-18T02:58:50;110.95;;;61.08;;
75887;SDS011;64562;55.662;37.300;2022-12-18T03:01:21;103.95;;;58.20;;
75887;SDS011;64562;55.662;37.300;2022-12-18T03:06:18;106.75;;;59.92;;
75887;SDS011;64562;55.662;37.300;2022-12-18T03:08:48;105.40;;;57.40;;
75887;SDS011;64562;55.662;37.300;2022-12-18T03:11:15;101.97;;;54.92;;
75887;SDS011;64562;55.662;37.300;2022-12-18T03:14:05;102.63;;;58.53;;
75887;SDS011;64562;55.662;37.300;2022-12-18T03:16:32;107.10;;;61.15;;
75887;SDS011;64562;55.662;37.300;2022-12-18T03:19:01;104.07;;;57.50;;
75887;SDS011;64562;55.662;37.300;2022-12-18T03:21:29;108.70;;;59.92;;
75887;SDS011;64562;55.662;37.300;2022-12-18T03:23:58;101.57;;;57.60;;
75887;SDS011;64562;55.662;37.300;2022-12-18T03:26:26;108.22;;;59.78;;
75887;SDS011;64562;55.662;37.300;2022-12-18T03:28:54;107.57;;;58.92;;
75887;SDS011;64562;55.662;37.300;2022-12-18T03:31:23;108.15;;;59.80;;
75887;SDS011;64562;55.662;37.300;2022-12-18T03:33:53;98.63;;;54.92;;
75887;SDS011;64562;55.662;37.300;2022-12-18T03:36:20;99.47;;;55.92;;
75887;SDS011;64562;55.662;37.300;2022-12-18T03:38:47;100.93;;;56.05;;
75887;SDS011;64562;55.662;37.300;2022-12-18T03:41:15;107.07;;;57.80;;
75887;SDS011;64562;55.662;37.300;2022-12-18T03:43:46;104.95;;;59.13;;
75887;SDS011;64562;55.662;37.300;2022-12-18T03:46:15;105.05;;;57.83;;
75887;SDS011;64562;55.662;37.300;2022-12-18T03:48:46;102.57;;;57.67;;
75887;SDS011;64562;55.662;37.300;2022-12-18T03:51:14;99.82;;;56.60;;
75887;SDS011;64562;55.662;37.300;2022-12-18T03:53:46;105.43;;;57.55;;
75887;SDS011;64562;55.662;37.300;2022-12-18T03:56:14;108.18;;;64.40;;
75887;SDS011;64562;55.662;37.300;2022-12-18T03:58:42;106.45;;;56.85;;
75887;SDS011;64562;55.662;37.300;2022-12-18T04:01:10;102.63;;;58.45;;
75887;SDS011;64562;55.662;37.300;2022-12-18T04:03:38;100.35;;;55.65;;
75887;SDS011;64562;55.662;37.300;2022-12-18T04:06:07;109.82;;;58.20;;
75887;SDS011;64562;55.662;37.300;2022-12-18T04:08:34;96.97;;;56.03;;
75887;SDS011;64562;55.662;37.300;2022-12-18T04:11:01;100.28;;;56.22;;
75887;SDS011;64562;55.662;37.300;2022-12-18T04:13:28;103.97;;;58.45;;
75887;SDS011;64562;55.662;37.300;2022-12-18T04:15:55;100.35;;;57.08;;
75887;SDS011;64562;55.662;37.300;2022-12-18T04:18:22;100.78;;;57.22;;
75887;SDS011;64562;55.662;37.300;2022-12-18T04:20:48;105.13;;;55.58;;
75887;SDS011;64562;55.662;37.300;2022-12-18T04:23:17;106.13;;;57.28;;
75887;SDS011;64562;55.662;37.300;2022-12-18T04:25:43;97.13;;;54.65;;
75887;SDS011;64562;55.662;37.300;2022-12-18T04:28:10;95.65;;;56.15;;
75887;SDS011;64562;55.662;37.300;2022-12-18T04:30:37;104.35;;;58.30;;
75887;SDS011;64562;55.662;37.300;2022-12-18T04:33:07;99.88;;;56.58;;
75887;SDS011;64562;55.662;37.300;2022-12-18T04:38:00;103.63;;;57.17;;
75887;SDS011;64562;55.662;37.300;2022-12-18T04:40:29;104.13;;;56.65;;
75887;SDS011;64562;55.662;37.300;2022-12-18T04:42:55;108.93;;;59.63;;
75887;SDS011;64562;55.662;37.300;2022-12-18T04:45:22;101.35;;;57.05;;
75887;SDS011;64562;55.662;37.300;2022-12-18T04:47:49;111.03;;;60.58;;
75887;SDS011;64562;55.662;37.300;2022-12-18T04:50:15;106.85;;;60.38;;
75887;SDS011;64562;55.662;37.300;2022-12-18T04:52:42;112.70;;;61.35;;
75887;SDS011;64562;55.662;37.300;2022-12-18T04:55:09;106.82;;;61.25;;
75887;SDS011;64562;55.662;37.300;2022-12-18T04:57:37;100.93;;;56.38;;
75887;SDS011;64562;55.662;37.300;2022-12-18T05:00:04;103.75;;;58.72;;
75887;SDS011;64562;55.662;37.300;2022-12-18T05:02:31;108.70;;;64.35;;
75887;SDS011;64562;55.662;37.300;2022-12-18T05:04:58;98.53;;;57.40;;
75887;SDS011;64562;55.662;37.300;2022-12-18T05:07:25;103.30;;;56.75;;
75887;SDS011;64562;55.662;37.300;2022-12-18T05:09:51;100.68;;;55.88;;
75887;SDS011;64562;55.662;37.300;2022-12-18T05:12:18;94.95;;;54.97;;
75887;SDS011;64562;55.662;37.300;2022-12-18T05:14:46;109.03;;;63.53;;
75887;SDS011;64562;55.662;37.300;2022-12-18T05:17:13;99.65;;;56.13;;
75887;SDS011;64562;55.662;37.300;2022-12-18T05:19:39;100.40;;;55.60;;
75887;SDS011;64562;55.662;37.300;2022-12-18T05:22:06;102.88;;;58.50;;
75887;SDS011;64562;55.662;37.300;2022-12-18T05:24:33;104.78;;;57.13;;
75887;SDS011;64562;55.662;37.300;2022-12-18T05:27:00;99.70;;;55.67;;
75887;SDS011;64562;55.662;37.300;2022-12-18T05:29:26;101.18;;;55.28;;
75887;SDS011;64562;55.662;37.300;2022-12-18T05:31:55;103.13;;;55.38;;
75887;SDS011;64562;55.662;37.300;2022-12-18T05:34:21;100.70;;;53.20;;
75887;SDS011;64562;55.662;37.300;2022-12-18T05:36:48;98.68;;;54.83;;
75887;SDS011;64562;55.662;37.300;2022-12-18T05:39:15;100.32;;;56.30;;
75887;SDS011;64562;55.662;37.300;2022-12-18T05:41:42;99.20;;;54.45;;
75887;SDS011;64562;55.662;37.300;2022-12-18T05:44:09;100.65;;;56.03;;
75887;SDS011;64562;55.662;37.300;2022-12-18T05:46:36;100.78;;;56.72;;
75887;SDS011;64562;55.662;37.300;2022-12-18T05:49:04;101.18;;;57.22;;
75887;SDS011;64562;55.662;37.300;2022-12-18T05:51:31;99.25;;;54.65;;
75887;SDS011;64562;55.662;37.300;2022-12-18T05:53:57;96.03;;;52.90;;
75887;SDS011;64562;55.662;37.300;2022-12-18T05:56:24;101.65;;;58.28;;
75887;SDS011;64562;55.662;37.300;2022-12-18T05:58:51;99.13;;;57.05;;
75887;SDS011;64562;55.662;37.300;2022-12-18T06:01:19;102.40;;;56.05;;
75887;SDS011;64562;55.662;37.300;2022-12-18T06:03:46;109.43;;;59.85;;
75887;SDS011;64562;55.662;37.300;2022-12-18T06:06:15;100.25;;;56.13;;
75887;SDS011;64562;55.662;37.300;2022-12-18T06:08:42;104.93;;;57.67;;
75887;SDS011;64562;55.662;37.300;2022-12-18T06:11:09;104.30;;;58.33;;
75887;SDS011;64562;55.662;37.300;2022-12-18T06:13:36;100.45;;;57.50;;
75887;SDS011;64562;55.662;37.300;2022-12-18T06:16:03;103.72;;;56.30;;
75887;SDS011;64562;55.662;37.300;2022-12-18T06:18:30;102.43;;;55.33;;
75887;SDS011;64562;55.662;37.300;2022-12-18T06:20:56;101.63;;;56.40;;
75887;SDS011;64562;55.662;37.300;2022-12-18T06:23:25;107.57;;;59.33;;
75887;SDS011;64562;55.662;37.300;2022-12-18T06:25:51;103.43;;;55.97;;
75887;SDS011;64562;55.662;37.300;2022-12-18T06:28:18;99.65;;;55.42;;
75887;SDS011;64562;55.662;37.300;2022-12-18T06:30:45;99.30;;;56.00;;
75887;SDS011;64562;55.662;37.300;2022-12-18T06:33:13;103.45;;;56.15;;
75887;SDS011;64562;55.662;37.300;2022-12-18T06:35:40;104.20;;;58.35;;
75887;SDS011;64562;55.662;37.300;2022-12-18T06:38:07;106.35;;;57.95;;
75887;SDS011;64562;55.662;37.300;2022-12-18T06:40:36;103.85;;;56.45;;
75887;SDS011;64562;55.662;37.300;2022-12-18T06:43:03;107.03;;;61.80;;
75887;SDS011;64562;55.662;37.300;2022-12-18T06:45:29;115.25;;;67.43;;
75887;SDS011;64562;55.662;37.300;2022-12-18T06:47:56;114.50;;;59.28;;
75887;SDS011;64562;55.662;37.300;2022-12-18T06:50:23;110.07;;;58.65;;
75887;SDS011;64562;55.662;37.300;2022-12-18T06:52:49;107.70;;;58.67;;
75887;SDS011;64562;55.662;37.300;2022-12-18T06:55:16;104.60;;;55.50;;
75887;SDS011;64562;55.662;37.300;2022-12-18T06:57:44;112.25;;;63.65;;
75887;SDS011;64562;55.662;37.300;2022-12-18T07:00:11;110.10;;;57.72;;
75887;SDS011;64562;55.662;37.300;2022-12-18T07:02:38;104.20;;;57.38;;
75887;SDS011;64562;55.662;37.300;2022-12-18T07:05:06;104.10;;;57.85;;
75887;SDS011;64562;55.662;37.300;2022-12-18T07:07:33;110.88;;;61.63;;
75887;SDS011;64562;55.662;37.300;2022-12-18T07:09:59;108.55;;;62.80;;
75887;SDS011;64562;55.662;37.300;2022-12-18T07:12:26;100.60;;;57.85;;
75887;SDS011;64562;55.662;37.300;2022-12-18T07:14:54;106.53;;;58.13;;
75887;SDS011;64562;55.662;37.300;2022-12-18T07:17:21;106.80;;;60.13;;
75887;SDS011;64562;55.662;37.300;2022-12-18T07:19:48;105.28;;;57.67;;
75887;SDS011;64562;55.662;37.300;2022-12-18T07:22:14;116.10;;;62.45;;
75887;SDS011;64562;55.662;37.300;2022-12-18T07:24:41;110.35;;;60.90;;
75887;SDS011;64562;55.662;37.300;2022-12-18T07:27:08;104.30;;;56.80;;
75887;SDS011;64562;55.662;37.300;2022-12-18T07:29:35;107.25;;;58.50;;
75887;SDS011;64562;55.662;37.300;2022-12-18T07:32:03;105.10;;;57.00;;
75887;SDS011;64562;55.662;37.300;2022-12-18T07:34:30;108.25;;;60.28;;
75887;SDS011;64562;55.662;37.300;2022-12-18T07:36:56;111.00;;;61.67;;
75887;SDS011;64562;55.662;37.300;2022-12-18T07:39:23;110.40;;;60.78;;
75887;SDS011;64562;55.662;37.300;2022-12-18T07:41:50;106.90;;;57.72;;
75887;SDS011;64562;55.662;37.300;2022-12-18T07:44:30;106.95;;;59.80;;
75887;SDS011;64562;55.662;37.300;2022-12-18T07:46:57;105.78;;;58.05;;
75887;SDS011;64562;55.662;37.300;2022-12-18T07:49:25;105.20;;;58.00;;
75887;SDS011;64562;55.662;37.300;2022-12-18T07:51:53;105.65;;;61.75;;
75887;SDS011;64562;55.662;37.300;2022-12-18T07:54:20;102.65;;;57.67;;
75887;SDS011;64562;55.662;37.300;2022-12-18T07:56:47;94.22;;;54.50;;
75887;SDS011;64562;55.662;37.300;2022-12-18T07:59:13;106.07;;;56.65;;
75887;SDS011;64562;55.662;37.300;2022-12-18T08:01:40;100.82;;;54.90;;
75887;SDS011;64562;55.662;37.300;2022-12-18T08:04:07;102.13;;;56.05;;
75887;SDS011;64562;55.662;37.300;2022-12-18T08:06:35;104.60;;;58.03;;
75887;SDS011;64562;55.662;37.300;2022-12-18T08:09:02;94.78;;;53.00;;
75887;SDS011;64562;55.662;37.300;2022-12-18T08:11:29;103.72;;;61.53;;
75887;SDS011;64562;55.662;37.300;2022-12-18T08:13:56;101.93;;;57.58;;
75887;SDS011;64562;55.662;37.300;2022-12-18T08:16:23;105.97;;;57.80;;
75887;SDS011;64562;55.662;37.300;2022-12-18T08:18:51;104.00;;;55.92;;
75887;SDS011;64562;55.662;37.300;2022-12-18T08:21:18;109.70;;;65.13;;
75887;SDS011;64562;55.662;37.300;2022-12-18T08:23:49;108.65;;;59.35;;
75887;SDS011;64562;55.662;37.300;2022-12-18T08:26:16;98.22;;;53.30;;
75887;SDS011;64562;55.662;37.300;2022-12-18T08:28:43;102.35;;;57.22;;
75887;SDS011;64562;55.662;37.300;2022-12-18T08:31:10;103.43;;;60.15;;
75887;SDS011;64562;55.662;37.300;2022-12-18T08:33:37;110.55;;;60.70;;
75887;SDS011;64562;55.662;37.300;2022-12-18T08:36:04;109.57;;;60.13;;
75887;SDS011;64562;55.662;37.300;2022-12-18T08:38:31;109.03;;;60.70;;
75887;SDS011;64562;55.662;37.300;2022-12-18T08:40:59;106.05;;;57.72;;
75887;SDS011;64562;55.662;37.300;2022-12-18T08:43:26;98.68;;;55.92;;
75887;SDS011;64562;55.662;37.300;2022-12-18T08:46:16;103.35;;;58.35;;
75887;SDS011;64562;55.662;37.300;2022-12-18T08:48:43;109.93;;;63.60;;
75887;SDS011;64562;55.662;37.300;2022-12-18T08:51:10;109.97;;;60.17;;
75887;SDS011;64562;55.662;37.300;2022-12-18T08:53:37;108.28;;;60.42;;
75887;SDS011;64562;55.662;37.300;2022-12-18T08:56:05;107.07;;;58.22;;
75887;SDS011;64562;55.662;37.300;2022-12-18T08:58:32;104.78;;;58.80;;
75887;SDS011;64562;55.662;37.300;2022-12-18T09:00:59;104.97;;;59.67;;
75887;SDS011;64562;55.662;37.300;2022-12-18T09:03:26;104.88;;;56.15;;
75887;SDS011;64562;55.662;37.300;2022-12-18T09:05:53;100.75;;;57.17;;
75887;SDS011;64562;55.662;37.300;2022-12-18T09:08:19;105.63;;;59.03;;
75887;SDS011;64562;55.662;37.300;2022-12-18T09:10:47;109.97;;;59.60;;
75887;SDS011;64562;55.662;37.300;2022-12-18T09:13:15;106.15;;;58.10;;
75887;SDS011;64562;55.662;37.300;2022-12-18T09:15:42;108.55;;;60.30;;
75887;SDS011;64562;55.662;37.300;2022-12-18T09:18:10;108.22;;;59.08;;
75887;SDS011;64562;55.662;37.300;2022-12-18T09:20:37;105.72;;;58.35;;
75887;SDS011;64562;55.662;37.300;2022-12-18T09:23:04;107.43;;;61.25;;
75887;SDS011;64562;55.662;37.300;2022-12-18T09:25:32;104.65;;;58.53;;
75887;SDS011;64562;55.662;37.300;2022-12-18T09:28:02;112.00;;;63.35;;
75887;SDS011;64562;55.662;37.300;2022-12-18T09:30:31;99.63;;;55.33;;
75887;SDS011;64562;55.662;37.300;2022-12-18T09:32:59;103.78;;;57.80;;
75887;SDS011;64562;55.662;37.300;2022-12-18T09:35:26;111.18;;;61.28;;
75887;SDS011;64562;55.662;37.300;2022-12-18T09:37:53;103.90;;;56.38;;
75887;SDS011;64562;55.662;37.300;2022-12-18T09:40:20;101.30;;;56.00;;
75887;SDS011;64562;55.662;37.300;2022-12-18T09:42:48;103.30;;;56.92;;
75887;SDS011;64562;55.662;37.300;2022-12-18T09:45:18;108.30;;;59.80;;
75887;SDS011;64562;55.662;37.300;2022-12-18T09:47:46;109.35;;;64.32;;
75887;SDS011;64562;55.662;37.300;2022-12-18T09:50:17;95.35;;;55.10;;
75887;SDS011;64562;55.662;37.300;2022-12-18T09:52:47;107.47;;;60.90;;
75887;SDS011;64562;55.662;37.300;2022-12-18T09:55:17;105.30;;;59.25;;
75887;SDS011;64562;55.662;37.300;2022-12-18T09:57:49;104.30;;;56.78;;
75887;SDS011;64562;55.662;37.300;2022-12-18T10:00:18;105.28;;;58.75;;
75887;SDS011;64562;55.662;37.300;2022-12-18T10:02:47;98.15;;;56.08;;
75887;SDS011;64562;55.662;37.300;2022-12-18T10:05:15;95.75;;;55.63;;
75887;SDS011;64562;55.662;37.300;2022-12-18T10:07:45;104.60;;;55.72;;
75887;SDS011;64562;55.662;37.300;2022-12-18T10:10:16;94.53;;;52.58;;
75887;SDS011;64562;55.662;37.300;2022-12-18T10:12:47;104.55;;;57.83;;
75887;SDS011;64562;55.662;37.300;2022-12-18T10:15:19;104.72;;;58.30;;
75887;SDS011;64562;55.662;37.300;2022-12-18T10:17:51;104.82;;;56.75;;
75887;SDS011;64562;55.662;37.300;2022-12-18T10:20:20;99.57;;;58.75;;
75887;SDS011;64562;55.662;37.300;2022-12-18T10:22:51;105.88;;;60.08;;
75887;SDS011;64562;55.662;37.300;2022-12-18T10:25:21;107.00;;;58.55;;
75887;SDS011;64562;55.662;37.300;2022-12-18T10:27:51;109.45;;;59.50;;
75887;SDS011;64562;55.662;37.300;2022-12-18T10:30:19;106.13;;;57.88;;
75887;SDS011;64562;55.662;37.300;2022-12-18T10:32:46;105.78;;;58.85;;
75887;SDS011;64562;55.662;37.300;2022-12-18T10:35:16;105.55;;;58.92;;
75887;SDS011;64562;55.662;37.300;2022-12-18T10:37:59;112.00;;;61.63;;
75887;SDS011;64562;55.662;37.300;2022-12-18T10:40:26;110.18;;;60.50;;
75887;SDS011;64562;55.662;37.300;2022-12-18T10:43:02;110.75;;;61.47;;
75887;SDS011;64562;55.662;37.300;2022-12-18T10:45:29;115.95;;;63.67;;
75887;SDS011;64562;55.662;37.300;2022-12-18T10:47:56;107.63;;;59.78;;
75887;SDS011;64562;55.662;37.300;2022-12-18T10:50:26;108.80;;;56.60;;
75887;SDS011;64562;55.662;37.300;2022-12-18T10:52:54;101.88;;;56.38;;
75887;SDS011;64562;55.662;37.300;2022-12-18T10:55:21;99.03;;;52.45;;
75887;SDS011;64562;55.662;37.300;2022-12-18T10:57:48;105.80;;;56.28;;
75887;SDS011;64562;55.662;37.300;2022-12-18T11:00:22;101.70;;;53.45;;
75887;SDS011;64562;55.662;37.300;2022-12-18T11:02:50;102.32;;;54.05;;
75887;SDS011;64562;55.662;37.300;2022-12-18T11:05:25;103.32;;;51.25;;
75887;SDS011;64562;55.662;37.300;2022-12-18T11:10:20;89.32;;;46.75;;
75887;SDS011;64562;55.662;37.300;2022-12-18T11:12:47;90.47;;;51.00;;
75887;SDS011;64562;55.662;37.300;2022-12-18T11:15:15;80.75;;;45.50;;
75887;SDS011;64562;55.662;37.300;2022-12-18T11:17:42;80.82;;;44.70;;
75887;SDS011;64562;55.662;37.300;2022-12-18T11:20:19;94.47;;;49.03;;
75887;SDS011;64562;55.662;37.300;2022-12-18T11:22:55;86.20;;;45.45;;
75887;SDS011;64562;55.662;37.300;2022-12-18T11:25:23;87.10;;;47.88;;
75887;SDS011;64562;55.662;37.300;2022-12-18T11:27:51;104.60;;;57.08;;
75887;SDS011;64562;55.662;37.300;2022-12-18T11:30:21;91.93;;;49.75;;
75887;SDS011;64562;55.662;37.300;2022-12-18T11:32:48;82.53;;;46.83;;
75887;SDS011;64562;55.662;37.300;2022-12-18T11:35:16;84.05;;;45.80;;
75887;SDS011;64562;55.662;37.300;2022-12-18T11:37:46;80.60;;;46.65;;
75887;SDS011;64562;55.662;37.300;2022-12-18T11:40:16;78.18;;;44.15;;
75887;SDS011;64562;55.662;37.300;2022-12-18T11:42:45;77.20;;;41.58;;
75887;SDS011;64562;55.662;37.300;2022-12-18T11:45:20;74.15;;;40.53;;
75887;SDS011;64562;55.662;37.300;2022-12-18T11:47:51;72.32;;;41.30;;
75887;SDS011;64562;55.662;37.300;2022-12-18T11:50:20;77.57;;;40.75;;
75887;SDS011;64562;55.662;37.300;2022-12-18T11:52:48;70.85;;;39.65;;
75887;SDS011;64562;55.662;37.300;2022-12-18T11:55:19;68.57;;;38.53;;
75887;SDS011;64562;55.662;37.300;2022-12-18T11:57:50;69.93;;;40.55;;
75887;SDS011;64562;55.662;37.300;2022-12-18T12:00:20;70.78;;;40.28;;
75887;SDS011;64562;55.662;37.300;2022-12-18T12:05:34;99.55;;;57.42;;
75887;SDS011;64562;55.662;37.300;2022-12-18T12:08:06;95.93;;;49.33;;
75887;SDS011;64562;55.662;37.300;2022-12-18T12:10:40;80.40;;;42.90;;
75887;SDS011;64562;55.662;37.300;2022-12-18T12:13:16;98.30;;;51.55;;
75887;SDS011;64562;55.662;37.300;2022-12-18T12:15:46;80.65;;;42.67;;
75887;SDS011;64562;55.662;37.300;2022-12-18T12:18:20;77.95;;;42.35;;
75887;SDS011;64562;55.662;37.300;2022-12-18T12:20:49;71.32;;;37.75;;
75887;SDS011;64562;55.662;37.300;2022-12-18T12:23:20;67.95;;;36.42;;
75887;SDS011;64562;55.662;37.300;2022-12-18T12:25:52;61.42;;;33.17;;
75887;SDS011;64562;55.662;37.300;2022-12-18T12:28:24;56.35;;;32.55;;
75887;SDS011;64562;55.662;37.300;2022-12-18T12:30:58;56.45;;;31.58;;
75887;SDS011;64562;55.662;37.300;2022-12-18T12:33:31;61.33;;;32.33;;
75887;SDS011;64562;55.662;37.300;2022-12-18T12:36:02;55.28;;;30.33;;
75887;SDS011;64562;55.662;37.300;2022-12-18T12:38:33;46.05;;;27.25;;
75887;SDS011;64562;55.662;37.300;2022-12-18T12:41:03;48.38;;;28.50;;
75887;SDS011;64562;55.662;37.300;2022-12-18T12:43:33;51.70;;;28.25;;
75887;SDS011;64562;55.662;37.300;2022-12-18T12:46:02;45.65;;;24.77;;
75887;SDS011;64562;55.662;37.300;2022-12-18T12:48:34;46.40;;;27.35;;
75887;SDS011;64562;55.662;37.300;2022-12-18T12:51:03;45.55;;;26.88;;
75887;SDS011;64562;55.662;37.300;2022-12-18T12:53:34;48.08;;;26.67;;
75887;SDS011;64562;55.662;37.300;2022-12-18T12:56:04;47.55;;;25.33;;
75887;SDS011;64562;55.662;37.300;2022-12-18T12:58:33;41.17;;;24.30;;
75887;SDS011;64562;55.662;37.300;2022-12-18T13:01:04;37.55;;;23.50;;
75887;SDS011;64562;55.662;37.300;2022-12-18T13:03:35;42.63;;;24.83;;
75887;SDS011;64562;55.662;37.300;2022-12-18T13:06:07;39.80;;;23.90;;
75887;SDS011;64562;55.662;37.300;2022-12-18T13:08:51;43.38;;;22.17;;
75887;SDS011;64562;55.662;37.300;2022-12-18T13:11:29;39.95;;;23.58;;
75887;SDS011;64562;55.662;37.300;2022-12-18T13:14:20;39.05;;;21.80;;
75887;SDS011;64562;55.662;37.300;2022-12-18T13:16:47;38.10;;;22.25;;
75887;SDS011;64562;55.662;37.300;2022-12-18T13:19:19;39.25;;;21.80;;
75887;SDS011;64562;55.662;37.300;2022-12-18T13:21:51;33.00;;;20.90;;
75887;SDS011;64562;55.662;37.300;2022-12-18T13:24:22;37.42;;;22.27;;
75887;SDS011;64562;55.662;37.300;2022-12-18T13:26:51;36.10;;;21.33;;
75887;SDS011;64562;55.662;37.300;2022-12-18T13:31:59;35.55;;;21.83;;
75887;SDS011;64562;55.662;37.300;2022-12-18T13:34:27;35.45;;;20.55;;
75887;SDS011;64562;55.662;37.300;2022-12-18T13:36:56;35.50;;;20.40;;
75887;SDS011;64562;55.662;37.300;2022-12-18T13:39:30;35.40;;;20.65;;
75887;SDS011;64562;55.662;37.300;2022-12-18T13:44:58;36.30;;;22.10;;
75887;SDS011;64562;55.662;37.300;2022-12-18T13:47:26;36.22;;;20.80;;
75887;SDS011;64562;55.662;37.300;2022-12-18T13:49:54;37.33;;;20.58;;
75887;SDS011;64562;55.662;37.300;2022-12-18T13:52:22;35.28;;;20.52;;
75887;SDS011;64562;55.662;37.300;2022-12-18T13:54:50;33.03;;;20.77;;
75887;SDS011;64562;55.662;37.300;2022-12-18T14:00:16;33.05;;;19.00;;
75887;SDS011;64562;55.662;37.300;2022-12-18T14:02:44;30.95;;;18.88;;
75887;SDS011;64562;55.662;37.300;2022-12-18T14:05:21;32.65;;;18.58;;
75887;SDS011;64562;55.662;37.300;2022-12-18T14:07:47;30.38;;;18.60;;
75887;SDS011;64562;55.662;37.300;2022-12-18T14:10:14;32.60;;;18.65;;
75887;SDS011;64562;55.662;37.300;2022-12-18T14:12:44;29.20;;;16.60;;
75887;SDS011;64562;55.662;37.300;2022-12-18T14:15:27;28.08;;;16.35;;
75887;SDS011;64562;55.662;37.300;2022-12-18T14:17:57;28.05;;;16.15;;
75887;SDS011;64562;55.662;37.300;2022-12-18T14:20:24;26.88;;;15.98;;
75887;SDS011;64562;55.662;37.300;2022-12-18T14:22:51;24.92;;;15.50;;
75887;SDS011;64562;55.662;37.300;2022-12-18T14:25:19;26.65;;;15.18;;
75887;SDS011;64562;55.662;37.300;2022-12-18T14:27:46;26.58;;;14.35;;
75887;SDS011;64562;55.662;37.300;2022-12-18T14:30:28;23.00;;;13.88;;